sensor_id;sensor_type;location;lat;lon;timestamp;temperature;humidity
4312;DHT22;2169;49.086;9.284;2022-09-09T00:00:14;16.90;57.10
4312;DHT22;2169;49.086;9.284;2022-09-09T00:02:47;16.90;57.20
4312;DHT22;2169;49.086;9.284;2022-09-09T00:05:21;16.80;57.20
4312;DHT22;2169;49.086;9.284;2022-09-09T00:07:53;16.80;57.30
4312;DHT22;2169;49.086;9.284;2022-09-09T00:10:24;16.80;57.30
4312;DHT22;2169;49.086;9.284;2022-09-09T00:12:57;16.80;57.40
4312;DHT22;2169;49.086;9.284;2022-09-09T00:15:29;16.80;57.40
4312;DHT22;2169;49.086;9.284;2022-09-09T00:18:07;16.70;57.30
4312;DHT22;2169;49.086;9.284;2022-09-09T00:20:39;16.70;57.40
4312;DHT22;2169;49.086;9.284;2022-09-09T00:23:12;16.70;57.40
4312;DHT22;2169;49.086;9.284;2022-09-09T00:25:46;16.70;57.50
4312;DHT22;2169;49.086;9.284;2022-09-09T00:28:18;16.70;57.60
4312;DHT22;2169;49.086;9.284;2022-09-09T00:30:46;16.70;57.70
4312;DHT22;2169;49.086;9.284;2022-09-09T00:33:19;16.70;57.70
4312;DHT22;2169;49.086;9.284;2022-09-09T00:35:49;16.70;57.80
4312;DHT22;2169;49.086;9.284;2022-09-09T00:38:20;16.70;57.80
4312;DHT22;2169;49.086;9.284;2022-09-09T00:40:52;16.70;57.90
4312;DHT22;2169;49.086;9.284;2022-09-09T00:43:26;16.70;57.90
4312;DHT22;2169;49.086;9.284;2022-09-09T00:46:23;16.60;57.90
4312;DHT22;2169;49.086;9.284;2022-09-09T00:49:00;16.60;58.00
4312;DHT22;2169;49.086;9.284;2022-09-09T00:51:36;16.60;58.10
4312;DHT22;2169;49.086;9.284;2022-09-09T00:54:28;16.60;58.10
4312;DHT22;2169;49.086;9.284;2022-09-09T00:57:06;16.70;58.10
4312;DHT22;2169;49.086;9.284;2022-09-09T00:59:45;16.70;58.20
4312;DHT22;2169;49.086;9.284;2022-09-09T01:02:18;16.70;58.20
4312;DHT22;2169;49.086;9.284;2022-09-09T01:04:48;16.70;58.10
4312;DHT22;2169;49.086;9.284;2022-09-09T01:07:17;16.70;58.10
4312;DHT22;2169;49.086;9.284;2022-09-09T01:09:54;16.70;58.10
4312;DHT22;2169;49.086;9.284;2022-09-09T01:12:34;16.70;58.00
4312;DHT22;2169;49.086;9.284;2022-09-09T01:15:10;16.80;58.10
4312;DHT22;2169;49.086;9.284;2022-09-09T01:17:50;16.80;58.00
4312;DHT22;2169;49.086;9.284;2022-09-09T01:20:23;16.80;58.00
4312;DHT22;2169;49.086;9.284;2022-09-09T01:23:04;16.80;58.00
4312;DHT22;2169;49.086;9.284;2022-09-09T01:26:15;16.80;57.90
4312;DHT22;2169;49.086;9.284;2022-09-09T01:28:46;16.80;57.80
4312;DHT22;2169;49.086;9.284;2022-09-09T01:31:17;16.80;57.90
4312;DHT22;2169;49.086;9.284;2022-09-09T01:33:45;16.90;58.00
4312;DHT22;2169;49.086;9.284;2022-09-09T01:36:15;16.90;58.00
4312;DHT22;2169;49.086;9.284;2022-09-09T01:38:45;16.90;58.00
4312;DHT22;2169;49.086;9.284;2022-09-09T01:41:13;16.90;58.00
4312;DHT22;2169;49.086;9.284;2022-09-09T01:43:40;16.90;58.00
4312;DHT22;2169;49.086;9.284;2022-09-09T01:46:07;16.90;58.00
4312;DHT22;2169;49.086;9.284;2022-09-09T01:48:34;16.90;58.10
4312;DHT22;2169;49.086;9.284;2022-09-09T01:51:01;16.90;58.10
4312;DHT22;2169;49.086;9.284;2022-09-09T01:53:27;16.90;58.00
4312;DHT22;2169;49.086;9.284;2022-09-09T01:56:05;16.90;58.10
4312;DHT22;2169;49.086;9.284;2022-09-09T01:58:47;17.00;58.10
4312;DHT22;2169;49.086;9.284;2022-09-09T02:01:26;17.00;58.10
4312;DHT22;2169;49.086;9.284;2022-09-09T02:03:57;17.00;58.10
4312;DHT22;2169;49.086;9.284;2022-09-09T02:06:28;17.00;58.10
4312;DHT22;2169;49.086;9.284;2022-09-09T02:08:57;17.00;58.10
4312;DHT22;2169;49.086;9.284;2022-09-09T02:11:28;17.00;58.10
4312;DHT22;2169;49.086;9.284;2022-09-09T02:14:00;17.00;58.10
4312;DHT22;2169;49.086;9.284;2022-09-09T02:16:31;17.00;58.10
4312;DHT22;2169;49.086;9.284;2022-09-09T02:19:02;17.00;58.10
4312;DHT22;2169;49.086;9.284;2022-09-09T02:21:31;17.00;58.00
4312;DHT22;2169;49.086;9.284;2022-09-09T02:24:04;17.00;58.00
4312;DHT22;2169;49.086;9.284;2022-09-09T02:26:31;17.00;58.00
4312;DHT22;2169;49.086;9.284;2022-09-09T02:29:03;17.00;57.90
4312;DHT22;2169;49.086;9.284;2022-09-09T02:31:34;17.00;57.90
4312;DHT22;2169;49.086;9.284;2022-09-09T02:34:03;17.00;58.00
4312;DHT22;2169;49.086;9.284;2022-09-09T02:36:33;17.10;58.10
4312;DHT22;2169;49.086;9.284;2022-09-09T02:39:03;17.00;58.10
4312;DHT22;2169;49.086;9.284;2022-09-09T02:41:32;17.00;58.30
4312;DHT22;2169;49.086;9.284;2022-09-09T02:44:01;17.10;58.50
4312;DHT22;2169;49.086;9.284;2022-09-09T02:46:36;17.00;58.50
4312;DHT22;2169;49.086;9.284;2022-09-09T02:49:10;17.10;58.80
4312;DHT22;2169;49.086;9.284;2022-09-09T02:51:46;17.00;58.90
4312;DHT22;2169;49.086;9.284;2022-09-09T02:54:21;17.10;59.00
4312;DHT22;2169;49.086;9.284;2022-09-09T02:56:53;17.10;59.20
4312;DHT22;2169;49.086;9.284;2022-09-09T02:59:25;17.00;59.10
4312;DHT22;2169;49.086;9.284;2022-09-09T03:01:52;17.00;59.80
4312;DHT22;2169;49.086;9.284;2022-09-09T03:04:19;17.00;59.30
4312;DHT22;2169;49.086;9.284;2022-09-09T03:06:46;17.00;59.40
4312;DHT22;2169;49.086;9.284;2022-09-09T03:09:13;16.90;59.40
4312;DHT22;2169;49.086;9.284;2022-09-09T03:11:40;16.90;59.50
4312;DHT22;2169;49.086;9.284;2022-09-09T03:14:06;16.90;59.50
4312;DHT22;2169;49.086;9.284;2022-09-09T03:16:35;16.90;59.60
4312;DHT22;2169;49.086;9.284;2022-09-09T03:19:01;16.90;59.60
4312;DHT22;2169;49.086;9.284;2022-09-09T03:21:28;16.90;59.60
4312;DHT22;2169;49.086;9.284;2022-09-09T03:23:55;16.80;59.60
4312;DHT22;2169;49.086;9.284;2022-09-09T03:26:22;16.80;59.60
4312;DHT22;2169;49.086;9.284;2022-09-09T03:28:49;16.80;59.70
4312;DHT22;2169;49.086;9.284;2022-09-09T03:31:17;16.80;59.80
4312;DHT22;2169;49.086;9.284;2022-09-09T03:33:46;16.80;59.90
4312;DHT22;2169;49.086;9.284;2022-09-09T03:36:13;16.80;59.90
4312;DHT22;2169;49.086;9.284;2022-09-09T03:38:40;16.80;59.90
4312;DHT22;2169;49.086;9.284;2022-09-09T03:41:07;16.80;59.90
4312;DHT22;2169;49.086;9.284;2022-09-09T03:43:34;16.80;60.00
4312;DHT22;2169;49.086;9.284;2022-09-09T03:46:03;16.80;60.00
4312;DHT22;2169;49.086;9.284;2022-09-09T03:48:30;16.80;59.90
4312;DHT22;2169;49.086;9.284;2022-09-09T03:50:58;16.80;59.90
4312;DHT22;2169;49.086;9.284;2022-09-09T03:53:27;16.70;59.90
4312;DHT22;2169;49.086;9.284;2022-09-09T03:55:55;16.70;59.90
4312;DHT22;2169;49.086;9.284;2022-09-09T03:58:26;16.70;59.80
4312;DHT22;2169;49.086;9.284;2022-09-09T04:00:54;16.70;59.80
4312;DHT22;2169;49.086;9.284;2022-09-09T04:03:21;16.70;59.80
4312;DHT22;2169;49.086;9.284;2022-09-09T04:05:50;16.70;59.80
4312;DHT22;2169;49.086;9.284;2022-09-09T04:08:18;16.70;59.80
4312;DHT22;2169;49.086;9.284;2022-09-09T04:10:45;16.70;59.80
4312;DHT22;2169;49.086;9.284;2022-09-09T04:13:12;16.70;59.80
4312;DHT22;2169;49.086;9.284;2022-09-09T04:15:42;16.70;59.70
4312;DHT22;2169;49.086;9.284;2022-09-09T04:18:09;16.70;59.70
4312;DHT22;2169;49.086;9.284;2022-09-09T04:20:36;16.70;59.70
4312;DHT22;2169;49.086;9.284;2022-09-09T04:23:03;16.70;59.70
4312;DHT22;2169;49.086;9.284;2022-09-09T04:25:31;16.70;59.70
4312;DHT22;2169;49.086;9.284;2022-09-09T04:27:59;16.70;59.70
4312;DHT22;2169;49.086;9.284;2022-09-09T04:30:26;16.70;59.60
4312;DHT22;2169;49.086;9.284;2022-09-09T04:32:52;16.70;59.60
4312;DHT22;2169;49.086;9.284;2022-09-09T04:35:19;16.70;59.60
4312;DHT22;2169;49.086;9.284;2022-09-09T04:37:46;16.70;59.60
4312;DHT22;2169;49.086;9.284;2022-09-09T04:40:13;16.70;59.60
4312;DHT22;2169;49.086;9.284;2022-09-09T04:42:41;16.70;59.60
4312;DHT22;2169;49.086;9.284;2022-09-09T04:45:09;16.70;59.60
4312;DHT22;2169;49.086;9.284;2022-09-09T04:47:38;16.70;59.60
4312;DHT22;2169;49.086;9.284;2022-09-09T04:50:06;16.70;59.60
4312;DHT22;2169;49.086;9.284;2022-09-09T04:52:34;16.70;59.60
4312;DHT22;2169;49.086;9.284;2022-09-09T04:55:00;16.70;59.60
4312;DHT22;2169;49.086;9.284;2022-09-09T04:57:27;16.70;59.60
4312;DHT22;2169;49.086;9.284;2022-09-09T04:59:55;16.70;59.60
4312;DHT22;2169;49.086;9.284;2022-09-09T05:02:22;16.70;59.60
4312;DHT22;2169;49.086;9.284;2022-09-09T05:04:49;16.70;59.60
4312;DHT22;2169;49.086;9.284;2022-09-09T05:07:16;16.70;59.70
4312;DHT22;2169;49.086;9.284;2022-09-09T05:09:42;16.70;59.80
4312;DHT22;2169;49.086;9.284;2022-09-09T05:12:10;16.80;60.00
4312;DHT22;2169;49.086;9.284;2022-09-09T05:14:37;16.80;60.10
4312;DHT22;2169;49.086;9.284;2022-09-09T05:17:05;16.70;60.10
4312;DHT22;2169;49.086;9.284;2022-09-09T05:19:32;16.70;60.20
4312;DHT22;2169;49.086;9.284;2022-09-09T05:21:59;16.70;60.40
4312;DHT22;2169;49.086;9.284;2022-09-09T05:24:26;16.70;60.40
4312;DHT22;2169;49.086;9.284;2022-09-09T05:26:53;16.70;60.50
4312;DHT22;2169;49.086;9.284;2022-09-09T05:29:24;16.70;60.60
4312;DHT22;2169;49.086;9.284;2022-09-09T05:31:52;16.70;60.60
4312;DHT22;2169;49.086;9.284;2022-09-09T05:34:20;16.70;60.60
4312;DHT22;2169;49.086;9.284;2022-09-09T05:36:47;16.70;60.70
4312;DHT22;2169;49.086;9.284;2022-09-09T05:39:13;16.70;61.50
4312;DHT22;2169;49.086;9.284;2022-09-09T05:41:40;16.70;60.80
4312;DHT22;2169;49.086;9.284;2022-09-09T05:44:07;16.70;60.80
4312;DHT22;2169;49.086;9.284;2022-09-09T05:46:34;16.80;60.90
4312;DHT22;2169;49.086;9.284;2022-09-09T05:49:02;16.80;60.80
4312;DHT22;2169;49.086;9.284;2022-09-09T05:51:32;16.80;60.90
4312;DHT22;2169;49.086;9.284;2022-09-09T05:53:59;16.80;60.90
4312;DHT22;2169;49.086;9.284;2022-09-09T05:56:27;16.80;61.00
4312;DHT22;2169;49.086;9.284;2022-09-09T05:58:55;16.90;61.10
4312;DHT22;2169;49.086;9.284;2022-09-09T06:01:23;16.90;61.20
4312;DHT22;2169;49.086;9.284;2022-09-09T06:03:51;17.00;61.20
4312;DHT22;2169;49.086;9.284;2022-09-09T06:06:19;17.00;61.20
4312;DHT22;2169;49.086;9.284;2022-09-09T06:08:50;17.00;61.10
4312;DHT22;2169;49.086;9.284;2022-09-09T06:11:19;17.00;61.10
4312;DHT22;2169;49.086;9.284;2022-09-09T06:13:46;17.10;61.10
4312;DHT22;2169;49.086;9.284;2022-09-09T06:16:15;17.10;61.10
4312;DHT22;2169;49.086;9.284;2022-09-09T06:18:42;17.10;61.10
4312;DHT22;2169;49.086;9.284;2022-09-09T06:21:14;17.10;61.00
4312;DHT22;2169;49.086;9.284;2022-09-09T06:23:41;17.20;61.10
4312;DHT22;2169;49.086;9.284;2022-09-09T06:26:12;17.20;61.00
4312;DHT22;2169;49.086;9.284;2022-09-09T06:28:40;17.20;60.90
4312;DHT22;2169;49.086;9.284;2022-09-09T06:31:09;17.30;61.00
4312;DHT22;2169;49.086;9.284;2022-09-09T06:33:37;17.30;60.80
4312;DHT22;2169;49.086;9.284;2022-09-09T06:36:07;17.30;60.70
4312;DHT22;2169;49.086;9.284;2022-09-09T06:38:36;17.30;60.70
4312;DHT22;2169;49.086;9.284;2022-09-09T06:41:04;17.40;60.70
4312;DHT22;2169;49.086;9.284;2022-09-09T06:43:32;17.40;60.60
4312;DHT22;2169;49.086;9.284;2022-09-09T06:46:02;17.40;60.50
4312;DHT22;2169;49.086;9.284;2022-09-09T06:48:29;17.50;60.60
4312;DHT22;2169;49.086;9.284;2022-09-09T06:51:04;17.50;60.50
4312;DHT22;2169;49.086;9.284;2022-09-09T06:53:31;17.60;60.40
4312;DHT22;2169;49.086;9.284;2022-09-09T06:55:59;17.60;60.30
4312;DHT22;2169;49.086;9.284;2022-09-09T06:58:26;17.60;60.10
4312;DHT22;2169;49.086;9.284;2022-09-09T07:01:01;17.70;60.10
4312;DHT22;2169;49.086;9.284;2022-09-09T07:03:28;17.80;60.00
4312;DHT22;2169;49.086;9.284;2022-09-09T07:05:55;17.80;59.90
4312;DHT22;2169;49.086;9.284;2022-09-09T07:08:22;17.80;59.80
4312;DHT22;2169;49.086;9.284;2022-09-09T07:10:50;17.90;59.70
4312;DHT22;2169;49.086;9.284;2022-09-09T07:13:19;18.00;59.80
4312;DHT22;2169;49.086;9.284;2022-09-09T07:15:50;18.00;59.60
4312;DHT22;2169;49.086;9.284;2022-09-09T07:18:18;18.00;59.50
4312;DHT22;2169;49.086;9.284;2022-09-09T07:20:53;18.10;59.50
4312;DHT22;2169;49.086;9.284;2022-09-09T07:23:20;18.10;59.40
4312;DHT22;2169;49.086;9.284;2022-09-09T07:25:47;18.20;59.40
4312;DHT22;2169;49.086;9.284;2022-09-09T07:28:14;18.20;59.30
4312;DHT22;2169;49.086;9.284;2022-09-09T07:30:40;18.30;59.30
4312;DHT22;2169;49.086;9.284;2022-09-09T07:33:08;18.40;59.20
4312;DHT22;2169;49.086;9.284;2022-09-09T07:35:37;18.40;59.20
4312;DHT22;2169;49.086;9.284;2022-09-09T07:38:03;18.50;59.20
4312;DHT22;2169;49.086;9.284;2022-09-09T07:40:32;18.50;59.10
4312;DHT22;2169;49.086;9.284;2022-09-09T07:42:59;18.60;59.10
4312;DHT22;2169;49.086;9.284;2022-09-09T07:45:26;18.70;59.10
4312;DHT22;2169;49.086;9.284;2022-09-09T07:47:53;18.70;58.90
4312;DHT22;2169;49.086;9.284;2022-09-09T07:50:22;18.80;58.90
4312;DHT22;2169;49.086;9.284;2022-09-09T07:52:50;18.90;58.80
4312;DHT22;2169;49.086;9.284;2022-09-09T07:55:17;18.90;58.60
4312;DHT22;2169;49.086;9.284;2022-09-09T07:57:45;19.00;58.60
4312;DHT22;2169;49.086;9.284;2022-09-09T08:00:12;19.10;58.60
4312;DHT22;2169;49.086;9.284;2022-09-09T08:02:40;19.20;58.50
4312;DHT22;2169;49.086;9.284;2022-09-09T08:05:07;19.20;58.30
4312;DHT22;2169;49.086;9.284;2022-09-09T08:07:34;19.30;58.30
4312;DHT22;2169;49.086;9.284;2022-09-09T08:10:03;19.30;58.00
4312;DHT22;2169;49.086;9.284;2022-09-09T08:12:29;19.40;58.00
4312;DHT22;2169;49.086;9.284;2022-09-09T08:14:56;19.50;58.00
4312;DHT22;2169;49.086;9.284;2022-09-09T08:17:23;19.60;57.80
4312;DHT22;2169;49.086;9.284;2022-09-09T08:19:50;19.70;57.70
4312;DHT22;2169;49.086;9.284;2022-09-09T08:22:17;19.80;57.40
4312;DHT22;2169;49.086;9.284;2022-09-09T08:24:44;19.90;57.30
4312;DHT22;2169;49.086;9.284;2022-09-09T08:27:13;20.10;57.00
4312;DHT22;2169;49.086;9.284;2022-09-09T08:29:40;20.20;56.70
4312;DHT22;2169;49.086;9.284;2022-09-09T08:32:07;20.30;56.70
4312;DHT22;2169;49.086;9.284;2022-09-09T08:34:34;20.50;56.50
4312;DHT22;2169;49.086;9.284;2022-09-09T08:37:01;20.70;56.40
4312;DHT22;2169;49.086;9.284;2022-09-09T08:39:27;20.80;56.90
4312;DHT22;2169;49.086;9.284;2022-09-09T08:42:17;21.00;56.00
4312;DHT22;2169;49.086;9.284;2022-09-09T08:45:12;21.20;55.80
4312;DHT22;2169;49.086;9.284;2022-09-09T08:47:48;21.30;55.20
4312;DHT22;2169;49.086;9.284;2022-09-09T08:50:21;21.50;54.90
4312;DHT22;2169;49.086;9.284;2022-09-09T08:52:54;21.50;54.60
4312;DHT22;2169;49.086;9.284;2022-09-09T08:55:27;21.60;54.50
4312;DHT22;2169;49.086;9.284;2022-09-09T08:57:58;21.70;54.30
4312;DHT22;2169;49.086;9.284;2022-09-09T09:00:35;21.80;54.10
4312;DHT22;2169;49.086;9.284;2022-09-09T09:03:10;21.90;53.90
4312;DHT22;2169;49.086;9.284;2022-09-09T09:05:47;22.00;53.40
4312;DHT22;2169;49.086;9.284;2022-09-09T09:08:20;22.10;53.20
4312;DHT22;2169;49.086;9.284;2022-09-09T09:10:54;22.20;52.80
4312;DHT22;2169;49.086;9.284;2022-09-09T09:13:30;22.30;52.40
4312;DHT22;2169;49.086;9.284;2022-09-09T09:16:03;22.40;52.00
4312;DHT22;2169;49.086;9.284;2022-09-09T09:18:33;22.50;51.70
4312;DHT22;2169;49.086;9.284;2022-09-09T09:21:03;22.60;51.10
4312;DHT22;2169;49.086;9.284;2022-09-09T09:23:39;22.80;50.50
4312;DHT22;2169;49.086;9.284;2022-09-09T09:26:10;23.00;50.20
4312;DHT22;2169;49.086;9.284;2022-09-09T09:28:40;23.10;49.30
4312;DHT22;2169;49.086;9.284;2022-09-09T09:31:09;23.20;49.10
4312;DHT22;2169;49.086;9.284;2022-09-09T09:33:44;23.30;48.90
4312;DHT22;2169;49.086;9.284;2022-09-09T09:36:13;23.30;48.30
4312;DHT22;2169;49.086;9.284;2022-09-09T09:38:51;23.40;47.90
4312;DHT22;2169;49.086;9.284;2022-09-09T09:41:29;23.40;47.20
4312;DHT22;2169;49.086;9.284;2022-09-09T09:43:58;23.50;47.00
4312;DHT22;2169;49.086;9.284;2022-09-09T09:46:26;23.60;46.90
4312;DHT22;2169;49.086;9.284;2022-09-09T09:49:00;23.70;46.80
4312;DHT22;2169;49.086;9.284;2022-09-09T09:51:28;23.80;47.00
4312;DHT22;2169;49.086;9.284;2022-09-09T09:54:06;23.80;45.40
4312;DHT22;2169;49.086;9.284;2022-09-09T09:56:35;23.90;44.10
4312;DHT22;2169;49.086;9.284;2022-09-09T09:59:04;24.00;44.20
4312;DHT22;2169;49.086;9.284;2022-09-09T10:01:32;24.00;46.00
4312;DHT22;2169;49.086;9.284;2022-09-09T10:04:01;23.90;48.00
4312;DHT22;2169;49.086;9.284;2022-09-09T10:06:33;23.70;49.20
4312;DHT22;2169;49.086;9.284;2022-09-09T10:09:02;23.50;49.80
4312;DHT22;2169;49.086;9.284;2022-09-09T10:11:42;23.30;50.30
4312;DHT22;2169;49.086;9.284;2022-09-09T10:14:18;23.00;50.90
4312;DHT22;2169;49.086;9.284;2022-09-09T10:16:59;22.90;51.70
4312;DHT22;2169;49.086;9.284;2022-09-09T10:19:33;22.90;52.10
4312;DHT22;2169;49.086;9.284;2022-09-09T10:22:08;22.80;52.40
4312;DHT22;2169;49.086;9.284;2022-09-09T10:27:38;22.70;52.80
4312;DHT22;2169;49.086;9.284;2022-09-09T10:30:16;22.70;53.50
4312;DHT22;2169;49.086;9.284;2022-09-09T10:32:49;22.70;53.90
4312;DHT22;2169;49.086;9.284;2022-09-09T10:35:25;22.70;54.10
4312;DHT22;2169;49.086;9.284;2022-09-09T10:38:11;22.80;54.30
4312;DHT22;2169;49.086;9.284;2022-09-09T10:40:43;22.70;54.30
4312;DHT22;2169;49.086;9.284;2022-09-09T10:43:22;22.70;54.40
4312;DHT22;2169;49.086;9.284;2022-09-09T10:46:02;22.70;54.50
4312;DHT22;2169;49.086;9.284;2022-09-09T10:48:40;22.60;54.80
4312;DHT22;2169;49.086;9.284;2022-09-09T10:51:28;22.60;55.00
4312;DHT22;2169;49.086;9.284;2022-09-09T10:54:15;22.60;55.20
4312;DHT22;2169;49.086;9.284;2022-09-09T10:56:53;22.60;55.30
4312;DHT22;2169;49.086;9.284;2022-09-09T10:59:25;22.50;55.30
4312;DHT22;2169;49.086;9.284;2022-09-09T11:01:58;22.50;55.30
4312;DHT22;2169;49.086;9.284;2022-09-09T11:04:30;22.50;55.30
4312;DHT22;2169;49.086;9.284;2022-09-09T11:07:02;22.50;55.40
4312;DHT22;2169;49.086;9.284;2022-09-09T11:09:35;22.50;55.60
4312;DHT22;2169;49.086;9.284;2022-09-09T11:12:05;22.60;56.00
4312;DHT22;2169;49.086;9.284;2022-09-09T11:14:39;22.60;56.00
4312;DHT22;2169;49.086;9.284;2022-09-09T11:17:13;22.70;56.20
4312;DHT22;2169;49.086;9.284;2022-09-09T11:19:41;22.70;56.60
4312;DHT22;2169;49.086;9.284;2022-09-09T11:22:16;22.70;56.70
4312;DHT22;2169;49.086;9.284;2022-09-09T11:24:46;22.80;57.00
4312;DHT22;2169;49.086;9.284;2022-09-09T11:27:20;22.90;57.10
4312;DHT22;2169;49.086;9.284;2022-09-09T11:30:10;22.90;56.90
4312;DHT22;2169;49.086;9.284;2022-09-09T11:33:04;22.90;56.80
4312;DHT22;2169;49.086;9.284;2022-09-09T11:35:45;22.90;56.50
4312;DHT22;2169;49.086;9.284;2022-09-09T11:38:25;22.80;56.30
4312;DHT22;2169;49.086;9.284;2022-09-09T11:40:58;22.90;56.10
4312;DHT22;2169;49.086;9.284;2022-09-09T11:43:29;22.70;54.90
4312;DHT22;2169;49.086;9.284;2022-09-09T11:45:58;22.70;54.10
4312;DHT22;2169;49.086;9.284;2022-09-09T11:48:32;22.60;53.70
4312;DHT22;2169;49.086;9.284;2022-09-09T11:51:05;22.60;53.50
4312;DHT22;2169;49.086;9.284;2022-09-09T11:53:33;22.50;52.50
4312;DHT22;2169;49.086;9.284;2022-09-09T11:56:03;22.40;52.20
4312;DHT22;2169;49.086;9.284;2022-09-09T11:58:35;22.40;52.10
4312;DHT22;2169;49.086;9.284;2022-09-09T12:01:13;22.30;51.30
4312;DHT22;2169;49.086;9.284;2022-09-09T12:03:44;22.30;50.80
4312;DHT22;2169;49.086;9.284;2022-09-09T12:06:15;22.20;50.60
4312;DHT22;2169;49.086;9.284;2022-09-09T12:08:45;22.20;50.60
4312;DHT22;2169;49.086;9.284;2022-09-09T12:11:24;22.10;50.30
4312;DHT22;2169;49.086;9.284;2022-09-09T12:13:57;22.10;50.40
4312;DHT22;2169;49.086;9.284;2022-09-09T12:16:30;22.00;50.20
4312;DHT22;2169;49.086;9.284;2022-09-09T12:19:16;22.00;50.50
4312;DHT22;2169;49.086;9.284;2022-09-09T12:21:51;21.90;50.30
4312;DHT22;2169;49.086;9.284;2022-09-09T12:24:27;21.90;50.40
4312;DHT22;2169;49.086;9.284;2022-09-09T12:27:00;21.90;50.60
4312;DHT22;2169;49.086;9.284;2022-09-09T12:29:35;21.90;50.80
4312;DHT22;2169;49.086;9.284;2022-09-09T12:32:09;21.90;51.00
4312;DHT22;2169;49.086;9.284;2022-09-09T12:34:40;22.00;51.10
4312;DHT22;2169;49.086;9.284;2022-09-09T12:37:15;22.00;51.20
4312;DHT22;2169;49.086;9.284;2022-09-09T12:39:45;22.00;50.90
4312;DHT22;2169;49.086;9.284;2022-09-09T12:42:18;22.00;50.60
4312;DHT22;2169;49.086;9.284;2022-09-09T12:44:56;22.00;50.80
4312;DHT22;2169;49.086;9.284;2022-09-09T12:47:27;22.00;50.70
4312;DHT22;2169;49.086;9.284;2022-09-09T12:49:58;22.00;50.60
4312;DHT22;2169;49.086;9.284;2022-09-09T12:52:28;22.00;50.50
4312;DHT22;2169;49.086;9.284;2022-09-09T12:54:57;22.00;50.20
4312;DHT22;2169;49.086;9.284;2022-09-09T12:57:26;22.10;50.30
4312;DHT22;2169;49.086;9.284;2022-09-09T13:00:05;22.10;50.10
4312;DHT22;2169;49.086;9.284;2022-09-09T13:02:33;22.20;50.10
4312;DHT22;2169;49.086;9.284;2022-09-09T13:05:14;22.30;49.80
4312;DHT22;2169;49.086;9.284;2022-09-09T13:07:42;22.40;49.60
4312;DHT22;2169;49.086;9.284;2022-09-09T13:10:11;22.50;49.40
4312;DHT22;2169;49.086;9.284;2022-09-09T13:12:39;22.50;48.90
4312;DHT22;2169;49.086;9.284;2022-09-09T13:15:20;22.60;48.20
4312;DHT22;2169;49.086;9.284;2022-09-09T13:17:53;22.60;48.00
4312;DHT22;2169;49.086;9.284;2022-09-09T13:20:23;22.70;47.80
4312;DHT22;2169;49.086;9.284;2022-09-09T13:22:52;22.70;47.50
4312;DHT22;2169;49.086;9.284;2022-09-09T13:25:24;22.70;47.50
4312;DHT22;2169;49.086;9.284;2022-09-09T13:27:55;22.70;47.40
4312;DHT22;2169;49.086;9.284;2022-09-09T13:30:24;22.70;47.50
4312;DHT22;2169;49.086;9.284;2022-09-09T13:33:05;22.70;47.50
4312;DHT22;2169;49.086;9.284;2022-09-09T13:35:34;22.80;47.50
4312;DHT22;2169;49.086;9.284;2022-09-09T13:38:07;22.80;47.30
4312;DHT22;2169;49.086;9.284;2022-09-09T13:40:35;22.80;47.20
4312;DHT22;2169;49.086;9.284;2022-09-09T13:43:02;22.80;47.40
4312;DHT22;2169;49.086;9.284;2022-09-09T13:45:31;22.90;47.40
4312;DHT22;2169;49.086;9.284;2022-09-09T13:48:08;22.90;47.40
4312;DHT22;2169;49.086;9.284;2022-09-09T13:50:37;23.10;47.20
4312;DHT22;2169;49.086;9.284;2022-09-09T13:53:04;23.10;47.20
4312;DHT22;2169;49.086;9.284;2022-09-09T13:55:30;23.20;47.20
4312;DHT22;2169;49.086;9.284;2022-09-09T13:57:58;23.20;46.80
4312;DHT22;2169;49.086;9.284;2022-09-09T14:00:27;23.30;46.60
4312;DHT22;2169;49.086;9.284;2022-09-09T14:02:55;23.30;46.30
4312;DHT22;2169;49.086;9.284;2022-09-09T14:05:22;23.30;46.40
4312;DHT22;2169;49.086;9.284;2022-09-09T14:07:50;23.40;46.40
4312;DHT22;2169;49.086;9.284;2022-09-09T14:10:17;23.50;46.10
4312;DHT22;2169;49.086;9.284;2022-09-09T14:12:44;23.60;45.90
4312;DHT22;2169;49.086;9.284;2022-09-09T14:15:12;23.60;45.60
4312;DHT22;2169;49.086;9.284;2022-09-09T14:17:39;23.60;45.40
4312;DHT22;2169;49.086;9.284;2022-09-09T14:20:07;23.60;45.50
4312;DHT22;2169;49.086;9.284;2022-09-09T14:22:35;23.60;45.60
4312;DHT22;2169;49.086;9.284;2022-09-09T14:25:06;23.50;45.40
4312;DHT22;2169;49.086;9.284;2022-09-09T14:27:33;23.50;45.90
4312;DHT22;2169;49.086;9.284;2022-09-09T14:30:00;23.50;46.10
4312;DHT22;2169;49.086;9.284;2022-09-09T14:32:27;23.50;46.30
4312;DHT22;2169;49.086;9.284;2022-09-09T14:34:54;23.50;46.50
4312;DHT22;2169;49.086;9.284;2022-09-09T14:37:21;23.50;46.50
4312;DHT22;2169;49.086;9.284;2022-09-09T14:39:48;23.60;46.40
4312;DHT22;2169;49.086;9.284;2022-09-09T14:42:17;23.60;46.50
4312;DHT22;2169;49.086;9.284;2022-09-09T14:44:44;23.60;46.50
4312;DHT22;2169;49.086;9.284;2022-09-09T14:47:11;23.60;46.60
4312;DHT22;2169;49.086;9.284;2022-09-09T14:49:37;23.60;46.60
4312;DHT22;2169;49.086;9.284;2022-09-09T14:52:04;23.60;46.60
4312;DHT22;2169;49.086;9.284;2022-09-09T14:54:31;23.60;46.60
4312;DHT22;2169;49.086;9.284;2022-09-09T14:56:58;23.60;46.70
4312;DHT22;2169;49.086;9.284;2022-09-09T14:59:26;23.60;46.80
4312;DHT22;2169;49.086;9.284;2022-09-09T15:01:53;23.60;46.90
4312;DHT22;2169;49.086;9.284;2022-09-09T15:04:20;23.60;47.10
4312;DHT22;2169;49.086;9.284;2022-09-09T15:06:47;23.70;47.40
4312;DHT22;2169;49.086;9.284;2022-09-09T15:09:15;23.70;47.70
4312;DHT22;2169;49.086;9.284;2022-09-09T15:11:42;23.70;47.60
4312;DHT22;2169;49.086;9.284;2022-09-09T15:14:09;23.70;47.40
4312;DHT22;2169;49.086;9.284;2022-09-09T15:16:39;23.70;47.10
4312;DHT22;2169;49.086;9.284;2022-09-09T15:19:07;23.70;47.00
4312;DHT22;2169;49.086;9.284;2022-09-09T15:21:35;23.60;47.40
4312;DHT22;2169;49.086;9.284;2022-09-09T15:24:03;23.60;48.00
4312;DHT22;2169;49.086;9.284;2022-09-09T15:26:30;23.60;48.60
4312;DHT22;2169;49.086;9.284;2022-09-09T15:28:56;23.60;48.60
4312;DHT22;2169;49.086;9.284;2022-09-09T15:31:25;23.50;49.00
4312;DHT22;2169;49.086;9.284;2022-09-09T15:33:56;23.40;49.20
4312;DHT22;2169;49.086;9.284;2022-09-09T15:36:27;23.40;49.30
4312;DHT22;2169;49.086;9.284;2022-09-09T15:38:55;23.40;49.40
4312;DHT22;2169;49.086;9.284;2022-09-09T15:41:22;23.30;49.30
4312;DHT22;2169;49.086;9.284;2022-09-09T15:43:51;23.30;49.30
4312;DHT22;2169;49.086;9.284;2022-09-09T15:46:27;23.30;49.20
4312;DHT22;2169;49.086;9.284;2022-09-09T15:48:57;23.20;49.20
4312;DHT22;2169;49.086;9.284;2022-09-09T15:51:25;23.20;49.90
4312;DHT22;2169;49.086;9.284;2022-09-09T15:53:57;23.20;49.10
4312;DHT22;2169;49.086;9.284;2022-09-09T15:56:24;23.20;48.70
4312;DHT22;2169;49.086;9.284;2022-09-09T15:58:52;23.10;48.10
4312;DHT22;2169;49.086;9.284;2022-09-09T16:01:19;23.10;47.60
4312;DHT22;2169;49.086;9.284;2022-09-09T16:03:47;23.10;47.30
4312;DHT22;2169;49.086;9.284;2022-09-09T16:06:18;23.10;47.20
4312;DHT22;2169;49.086;9.284;2022-09-09T16:08:48;23.00;46.90
4312;DHT22;2169;49.086;9.284;2022-09-09T16:11:17;23.00;47.10
4312;DHT22;2169;49.086;9.284;2022-09-09T16:13:46;22.90;47.00
4312;DHT22;2169;49.086;9.284;2022-09-09T16:16:15;22.90;46.80
4312;DHT22;2169;49.086;9.284;2022-09-09T16:18:43;22.80;46.70
4312;DHT22;2169;49.086;9.284;2022-09-09T16:21:14;22.80;46.90
4312;DHT22;2169;49.086;9.284;2022-09-09T16:23:43;22.70;47.00
4312;DHT22;2169;49.086;9.284;2022-09-09T16:26:13;22.70;47.20